Kingsville Naval Air Station, Texas
Current Conditions -  °F | °C
As of 4:56 PM on Saturday 25 Oct 2014 (Local Time) from KNQI Reporting Station
Clear Clear  
Wind Chill: 86°   Ceiling: Unl
Heat Index: 88°   Visibility: 10mi
Dew Point: 65°   Wind: 10mph
Humidity: 49%   Direction: 100°E
Pressure: 30.07"   Gusts: NA
Location:  27.4762°N, 97.7965°W
Report Text: KNQI 252156Z AUTO 10009KT 10SM CLR 30/18 A3007 RMK AO2 SLP180 T03000183 $
Loading
Personal Weather Stations






























Interactive Weather Map
Tropical Storm Tracking
New forecast layout! Learn more

10-Day Weather Forecast

Advertisements
Track Severe Weather on mobile